Time;durP1;ratioP1;P1;durP2;ratioP2;P2;SDS_P1;SDS_P2;PMS_P1;PMS_P2;Temp;Humidity;BMP_temperature;BMP_pressure;BME280_temperature;BME280_humidity;BME280_pressure;Samples;Min_cycle;Max_cycle;Signal;HPM_P1;HPM_P2
2021/12/05 00:23:10;;;;;;;38.67;22.00;;;102.90;2227.20;;;;;;5052780;28;20494;-73
2021/12/05 00:25:36;;;;;;;33.55;21.27;;;103.00;2227.20;;;;;;5060919;28;20388;-73
2021/12/05 00:42:07;;;;;;;36.40;22.15;;;103.10;2227.20;;;;;;5069782;28;20119;-72
2021/12/05 00:57:32;;;;;;;31.33;20.08;;;103.20;2227.20;;;;;;5038192;28;20390;-72
2021/12/05 01:08:22;;;;;;;32.08;20.20;;;103.30;2227.20;;;;;;5053357;28;20102;-72
2021/12/05 01:16:31;;;;;;;33.45;20.85;;;103.30;2227.20;;;;;;4972256;28;20058;-71
2021/12/05 01:18:57;;;;;;;34.90;20.58;;;103.20;2227.20;;;;;;4972306;28;20410;-72
2021/12/05 01:21:25;;;;;;;31.27;19.85;;;103.20;2227.20;;;;;;4979279;28;20047;-71
2021/12/05 01:24:05;;;;;;;33.42;20.55;;;103.20;2227.20;;;;;;4988701;28;20458;-71
2021/12/05 01:34:18;;;;;;;31.45;21.00;;;103.30;2227.20;;;;;;4982454;28;20041;-72
2021/12/05 01:36:58;;;;;;;33.80;20.83;;;103.30;2227.20;;;;;;4983045;28;20026;-72
2021/12/05 02:09:22;;;;;;;29.10;17.60;;;128.10;2252.80;;;;;;4970002;28;20069;-71
2021/12/05 02:33:25;;;;;;;28.17;16.92;;;128.20;2252.80;;;;;;5038159;28;20017;-72
2021/12/05 02:43:31;;;;;;;28.00;17.63;;;128.30;2252.80;;;;;;5050887;28;20348;-72
2021/12/05 02:46:01;;;;;;;33.40;16.80;;;128.30;2252.80;;;;;;5032433;28;20024;-72
2021/12/05 02:48:29;;;;;;;31.10;18.90;;;128.30;2252.80;;;;;;5033533;28;20031;-72
2021/12/05 02:50:57;;;;;;;29.55;17.40;;;128.30;2252.80;;;;;;5032487;28;20477;-72
2021/12/05 02:53:33;;;;;;;29.65;18.55;;;128.30;2252.80;;;;;;5050423;28;20063;-73
2021/12/05 02:56:00;;;;;;;26.88;17.10;;;128.30;2252.80;;;;;;5051305;28;20027;-72
2021/12/05 02:58:39;;;;;;;26.33;16.48;;;128.20;2252.80;;;;;;5050779;28;20044;-71
2021/12/05 03:01:21;;;;;;;28.58;15.43;;;128.20;2252.80;;;;;;5031280;28;20021;-72
2021/12/05 03:03:48;;;;;;;25.65;16.35;;;128.20;2252.80;;;;;;5031453;28;20064;-72
2021/12/05 03:06:21;;;;;;;27.98;17.02;;;128.30;2252.80;;;;;;5031998;28;20022;-72
2021/12/05 03:08:53;;;;;;;23.55;15.07;;;128.30;2252.80;;;;;;4989208;28;1253547;-72
2021/12/05 03:11:21;;;;;;;29.70;18.60;;;128.30;2252.80;;;;;;5051333;28;20082;-72
2021/12/05 03:13:47;;;;;;;22.98;14.70;;;128.30;2252.80;;;;;;5051690;28;20479;-72
2021/12/05 03:16:15;;;;;;;24.90;15.65;;;128.30;2252.80;;;;;;5051333;28;20507;-72
2021/12/05 03:18:43;;;;;;;22.17;14.70;;;128.40;2252.80;;;;;;5051046;28;20033;-71
2021/12/05 03:21:10;;;;;;;29.00;15.13;;;128.40;2252.80;;;;;;5039713;28;20024;-72
2021/12/05 03:23:42;;;;;;;21.88;15.00;;;128.40;2252.80;;;;;;5061624;28;20372;-71
2021/12/05 03:26:10;;;;;;;24.75;15.30;;;128.50;2252.80;;;;;;5051364;28;20021;-71
2021/12/05 03:28:38;;;;;;;26.27;15.05;;;128.50;2252.80;;;;;;5050827;28;20021;-71
2021/12/05 03:31:05;;;;;;;26.13;16.08;;;128.50;2252.80;;;;;;5051611;28;20031;-71
2021/12/05 03:33:31;;;;;;;21.27;14.07;;;128.50;2252.80;;;;;;5032978;28;20032;-72
2021/12/05 03:35:57;;;;;;;25.05;17.10;;;128.50;2252.80;;;;;;5033096;28;20107;-71
2021/12/05 03:38:23;;;;;;;22.50;14.35;;;128.50;2252.80;;;;;;5051051;28;20025;-72
2021/12/05 03:40:49;;;;;;;24.33;15.68;;;128.50;2252.80;;;;;;5050327;28;20514;-71
2021/12/05 03:43:18;;;;;;;25.30;14.32;;;128.50;2252.80;;;;;;5033562;28;20071;-72
2021/12/05 03:45:48;;;;;;;22.77;14.18;;;128.50;2252.80;;;;;;5033094;28;20028;-72
2021/12/05 03:48:16;;;;;;;25.83;14.68;;;128.50;2252.80;;;;;;5033545;28;20028;-71
2021/12/05 03:50:43;;;;;;;26.85;14.68;;;128.60;2252.80;;;;;;5050775;28;20029;-72
2021/12/05 03:53:10;;;;;;;25.67;15.40;;;128.50;2252.80;;;;;;5033299;28;20120;-72
2021/12/05 03:55:38;;;;;;;24.13;12.88;;;128.50;2252.80;;;;;;5050733;28;20081;-72
2021/12/05 03:58:04;;;;;;;22.77;15.75;;;128.50;2252.80;;;;;;5051626;28;20467;-72
2021/12/05 04:00:35;;;;;;;22.60;14.57;;;128.50;2252.80;;;;;;5058573;28;20070;-72
2021/12/05 04:03:03;;;;;;;22.95;12.95;;;128.50;2252.80;;;;;;5074712;28;20226;-72
2021/12/05 04:05:31;;;;;;;21.77;13.82;;;128.50;2252.80;;;;;;5067079;28;20082;-72
2021/12/05 04:07:57;;;;;;;21.13;14.10;;;128.60;2252.80;;;;;;5036608;28;20041;-72
2021/12/05 04:10:26;;;;;;;21.48;14.40;;;128.60;2252.80;;;;;;5055110;28;20029;-72
2021/12/05 04:12:52;;;;;;;25.08;13.88;;;128.50;2252.80;;;;;;5054365;28;20795;-72
2021/12/05 04:15:19;;;;;;;22.67;14.55;;;128.50;2252.80;;;;;;5035929;28;20075;-71
2021/12/05 04:17:45;;;;;;;28.42;15.90;;;128.50;2252.80;;;;;;5054818;28;20025;-72
2021/12/05 04:20:12;;;;;;;28.88;17.20;;;128.60;2252.80;;;;;;5054253;28;20021;-72
2021/12/05 04:22:40;;;;;;;31.00;19.02;;;128.50;2252.80;;;;;;5039127;28;20032;-72
2021/12/05 04:25:10;;;;;;;28.20;17.05;;;128.50;2252.80;;;;;;5036334;28;20422;-72
2021/12/05 04:27:37;;;;;;;24.00;16.42;;;128.60;2252.80;;;;;;5054937;28;20017;-72
2021/12/05 04:30:05;;;;;;;25.25;15.75;;;128.60;2252.80;;;;;;5053990;28;20032;-72
2021/12/05 04:32:31;;;;;;;26.98;14.55;;;128.60;2252.80;;;;;;5054550;28;20388;-71
2021/12/05 04:34:56;;;;;;;25.05;14.85;;;128.50;2252.80;;;;;;5054137;28;20039;-72
2021/12/05 04:37:23;;;;;;;27.10;15.07;;;128.60;2252.80;;;;;;5036198;28;20021;-72
2021/12/05 04:39:50;;;;;;;23.00;16.08;;;128.50;2252.80;;;;;;5036175;28;20760;-72
2021/12/05 04:42:16;;;;;;;31.27;14.70;;;128.50;2252.80;;;;;;5053933;28;20779;-72
2021/12/05 04:44:42;;;;;;;24.98;16.23;;;128.60;2252.80;;;;;;5037101;28;20036;-72
2021/12/05 04:47:09;;;;;;;25.40;13.93;;;128.50;2252.80;;;;;;5054211;28;20045;-72
2021/12/05 04:49:39;;;;;;;20.85;12.75;;;128.50;2252.80;;;;;;5036453;28;20029;-71
2021/12/05 04:52:06;;;;;;;26.17;14.70;;;128.50;2252.80;;;;;;5035926;28;20033;-71
2021/12/05 04:54:32;;;;;;;20.75;12.88;;;128.60;2252.80;;;;;;5054380;28;20793;-72
2021/12/05 04:56:58;;;;;;;23.30;14.02;;;128.60;2252.80;;;;;;5053671;28;20874;-71
2021/12/05 04:59:26;;;;;;;25.77;14.98;;;128.60;2252.80;;;;;;5033427;28;20044;-71
2021/12/05 05:01:56;;;;;;;25.77;14.93;;;128.50;2252.80;;;;;;5036231;28;20032;-72
2021/12/05 05:04:26;;;;;;;27.08;15.27;;;128.50;2252.80;;;;;;5035693;28;20029;-71
2021/12/05 05:06:58;;;;;;;26.20;15.20;;;128.50;2252.80;;;;;;5054063;28;20460;-72
2021/12/05 05:09:24;;;;;;;24.42;15.30;;;128.60;2252.80;;;;;;5052872;28;20142;-72
2021/12/05 05:11:50;;;;;;;26.88;15.95;;;128.50;2252.80;;;;;;5036159;28;20025;-72
2021/12/05 05:14:16;;;;;;;21.52;13.65;;;128.50;2252.80;;;;;;5053376;28;20400;-72
2021/12/05 05:16:43;;;;;;;25.30;15.15;;;128.50;2252.80;;;;;;5053520;28;20107;-71
2021/12/05 05:19:11;;;;;;;24.08;13.98;;;128.50;2252.80;;;;;;5054158;28;20444;-72
2021/12/05 05:48:32;;;;;;;23.23;14.07;;;128.50;2252.80;;;;;;4933102;29;20020;-73
2021/12/05 05:51:00;;;;;;;27.98;16.40;;;128.60;2252.80;;;;;;4917854;29;20040;-73
2021/12/05 05:53:26;;;;;;;27.27;17.95;;;128.60;2252.80;;;;;;4917694;29;20071;-73
2021/12/05 05:55:54;;;;;;;30.17;15.23;;;128.60;2252.80;;;;;;4918161;29;20474;-73
2021/12/05 05:58:23;;;;;;;24.88;15.55;;;128.60;2252.80;;;;;;4917408;29;20115;-73
2021/12/05 06:01:07;;;;;;;22.38;13.80;;;128.60;2252.80;;;;;;4917383;29;20043;-73
2021/12/05 06:03:33;;;;;;;24.65;15.10;;;128.60;2252.80;;;;;;4953037;28;20029;-73
2021/12/05 06:06:07;;;;;;;25.73;15.93;;;128.50;2252.80;;;;;;5031632;28;20040;-73
2021/12/05 06:08:35;;;;;;;27.70;15.77;;;128.50;2252.80;;;;;;5034866;28;20056;-73
2021/12/05 06:11:04;;;;;;;29.27;18.27;;;128.50;2252.80;;;;;;5052310;28;20476;-73
2021/12/05 06:13:31;;;;;;;32.47;19.10;;;128.50;2252.80;;;;;;5052230;28;20025;-73
2021/12/05 06:15:57;;;;;;;28.15;17.92;;;128.50;2252.80;;;;;;5034986;28;20040;-73
2021/12/05 06:18:23;;;;;;;24.70;17.05;;;128.50;2252.80;;;;;;5034343;28;20054;-72
2021/12/05 06:20:50;;;;;;;27.25;15.43;;;128.60;2252.80;;;;;;5039229;28;20059;-73
2021/12/05 06:23:16;;;;;;;25.88;17.60;;;128.60;2252.80;;;;;;5054260;28;20395;-72
2021/12/05 06:25:45;;;;;;;26.20;17.70;;;128.50;2252.80;;;;;;5072374;28;20028;-72
2021/12/05 06:28:13;;;;;;;28.13;16.63;;;128.50;2252.80;;;;;;5050083;28;20025;-72
2021/12/05 06:46:21;;;;;;;35.55;21.08;;;128.60;2252.80;;;;;;5052311;28;20028;-73
2021/12/05 06:48:48;;;;;;;32.33;19.77;;;128.70;2252.80;;;;;;5051404;28;20021;-71
2021/12/05 06:51:23;;;;;;;30.60;18.85;;;128.70;2252.80;;;;;;5033858;28;20025;-72
2021/12/05 06:53:49;;;;;;;29.85;17.48;;;128.70;2252.80;;;;;;5037964;28;20036;-73
2021/12/05 06:56:15;;;;;;;30.20;17.38;;;128.70;2252.80;;;;;;5061203;28;20056;-73
2021/12/05 06:58:41;;;;;;;32.22;18.80;;;128.70;2252.80;;;;;;5062505;28;20033;-73
2021/12/05 07:01:09;;;;;;;35.10;21.58;;;128.70;2252.80;;;;;;5059515;28;20089;-72
2021/12/05 07:03:37;;;;;;;36.03;20.83;;;128.70;2252.80;;;;;;5061773;28;20033;-73
2021/12/05 07:08:33;;;;;;;36.42;21.98;;;128.70;2252.80;;;;;;5060108;28;20039;-72
2021/12/05 07:21:39;;;;;;;38.53;23.30;;;128.80;2252.80;;;;;;5058631;28;20115;-73
2021/12/05 07:27:02;;;;;;;41.78;22.23;;;128.90;2252.80;;;;;;5058363;28;20021;-72
2021/12/05 07:40:46;;;;;;;37.63;23.13;;;153.80;2252.80;;;;;;5055393;28;20035;-72
2021/12/05 07:43:08;;;;;;;32.40;21.27;;;153.80;2252.80;;;;;;5054021;28;20032;-72
2021/12/05 07:45:42;;;;;;;32.78;19.10;;;153.80;2252.80;;;;;;5058789;28;20029;-72
2021/12/05 07:48:14;;;;;;;30.55;19.55;;;153.90;2252.80;;;;;;5060287;28;20378;-73
2021/12/05 07:50:52;;;;;;;31.83;19.35;;;153.90;2252.80;;;;;;5060510;28;20033;-74
2021/12/05 07:53:25;;;;;;;26.50;17.50;;;153.90;2252.80;;;;;;5029181;28;20024;-73
2021/12/05 07:55:55;;;;;;;30.20;18.58;;;153.80;2252.80;;;;;;5044871;28;20108;-73
2021/12/05 07:58:47;;;;;;;31.95;20.02;;;153.80;2252.80;;;;;;5039101;28;20032;-73
2021/12/05 08:14:29;;;;;;;45.47;23.10;;;153.90;2252.80;;;;;;5059363;28;20498;-73
2021/12/05 08:15:14;;;;;;;49.58;28.65;;;154.10;2252.80;;;;;;5059413;28;20514;-74
2021/12/05 08:17:49;;;;;;;43.47;26.60;;;154.20;2252.80;;;;;;5041910;28;20411;-74
2021/12/05 08:20:15;;;;;;;46.92;28.02;;;154.20;2252.80;;;;;;5043225;28;20549;-73
2021/12/05 08:22:41;;;;;;;49.17;26.40;;;154.30;2252.80;;;;;;5062040;28;20028;-73
2021/12/05 08:25:10;;;;;;;39.50;24.95;;;154.20;2252.80;;;;;;5040530;28;20024;-73
2021/12/05 08:27:40;;;;;;;42.90;23.08;;;154.30;2252.80;;;;;;5059214;28;20027;-73
2021/12/05 08:30:10;;;;;;;45.78;26.40;;;154.30;2252.80;;;;;;5059423;28;20365;-73
2021/12/05 08:33:15;;;;;;;47.25;28.13;;;154.30;2252.80;;;;;;5056349;28;20506;-73
2021/12/05 08:43:45;;;;;;;42.60;22.75;;;179.20;2252.80;;;;;;5057748;28;20082;-72
2021/12/05 09:40:13;;;;;;;43.25;25.00;;;154.20;2252.80;;;;;;5062881;28;20150;-76
2021/12/05 09:51:42;;;;;;;37.47;22.50;;;154.30;2252.80;;;;;;5064085;28;20089;-74
2021/12/05 10:10:53;;;;;;;28.48;18.35;;;154.50;2252.80;;;;;;5056279;28;20139;-77
2021/12/05 10:13:38;;;;;;;32.08;21.67;;;154.40;2252.80;;;;;;5055224;28;20025;-74
2021/12/05 10:19:18;;;;;;;36.80;22.00;;;154.50;2252.80;;;;;;5055363;28;20056;-74
2021/12/05 10:38:17;;;;;;;36.72;21.65;;;179.40;2252.80;;;;;;5058310;28;20033;-74
2021/12/05 10:41:21;;;;;;;37.25;23.02;;;179.40;2252.80;;;;;;5058726;28;20033;-74
2021/12/05 10:43:53;;;;;;;40.30;22.70;;;179.50;2252.80;;;;;;5052915;28;20431;-74
2021/12/05 10:46:21;;;;;;;42.45;25.08;;;179.50;2252.80;;;;;;5058057;28;20025;-74
2021/12/05 10:49:03;;;;;;;36.88;23.02;;;179.60;2252.80;;;;;;5039552;28;20479;-74
2021/12/05 10:51:34;;;;;;;39.15;24.00;;;179.50;2252.80;;;;;;5046941;28;20036;-74
2021/12/05 10:54:56;;;;;;;38.28;23.23;;;179.60;2252.80;;;;;;5056062;28;20040;-74
2021/12/05 10:57:28;;;;;;;36.65;21.77;;;179.60;2252.80;;;;;;5041108;28;20056;-74
2021/12/05 10:59:54;;;;;;;35.55;22.75;;;179.70;2252.80;;;;;;5050777;28;20481;-74
2021/12/05 11:02:25;;;;;;;41.13;24.17;;;179.70;2252.80;;;;;;5053529;28;20048;-75
2021/12/05 11:04:51;;;;;;;37.40;23.33;;;179.70;2252.80;;;;;;5041032;28;20033;-75
2021/12/05 11:07:23;;;;;;;32.63;21.42;;;179.70;2252.80;;;;;;5061363;28;20147;-74
2021/12/05 11:09:57;;;;;;;34.47;21.80;;;179.70;2252.80;;;;;;5052193;28;20526;-72
2021/12/05 11:12:33;;;;;;;35.65;22.98;;;179.70;2252.80;;;;;;5037598;28;20063;-73
2021/12/05 11:15:07;;;;;;;32.03;21.25;;;179.70;2252.80;;;;;;5043385;28;20170;-73
2021/12/05 11:41:10;;;;;;;34.78;22.50;;;179.70;2252.80;;;;;;5054076;28;20044;-72
2021/12/05 11:43:40;;;;;;;40.25;23.52;;;179.70;2252.80;;;;;;5053953;28;20013;-74
2021/12/05 12:02:40;;;;;;;41.45;28.02;;;179.80;2252.80;;;;;;5056048;28;20503;-75
2021/12/05 12:05:29;;;;;;;37.90;22.95;;;179.70;2252.80;;;;;;5059056;28;20037;-75
2021/12/05 12:08:05;;;;;;;42.25;26.02;;;179.70;2252.80;;;;;;5057804;28;20056;-75
2021/12/05 12:10:36;;;;;;;44.88;27.58;;;179.70;2252.80;;;;;;5026296;28;20108;-75
2021/12/05 12:13:15;;;;;;;55.28;33.20;;;179.70;2252.80;;;;;;5051302;28;20029;-75
2021/12/05 12:15:43;;;;;;;47.42;32.40;;;179.70;2252.80;;;;;;5050686;28;20141;-75
2021/12/05 12:21:36;;;;;;;55.83;37.28;;;179.70;2252.80;;;;;;5064154;28;20179;-76
2021/12/05 12:24:10;;;;;;;44.53;28.52;;;179.70;2252.80;;;;;;5043588;28;20024;-74
2021/12/05 12:26:37;;;;;;;62.80;38.83;;;179.70;2252.80;;;;;;5043677;28;20024;-73
2021/12/05 12:29:08;;;;;;;53.22;34.70;;;179.70;2252.80;;;;;;5067986;28;20471;-73
2021/12/05 12:31:38;;;;;;;50.38;32.55;;;179.60;2252.80;;;;;;5062119;28;20033;-73
2021/12/05 12:34:38;;;;;;;46.03;30.17;;;179.60;2252.80;;;;;;5055455;28;20407;-73
2021/12/05 12:37:06;;;;;;;37.95;23.73;;;179.60;2252.80;;;;;;5061167;28;20506;-73
2021/12/05 12:39:43;;;;;;;39.60;25.50;;;179.70;2252.80;;;;;;5063801;28;20028;-73
2021/12/05 12:42:19;;;;;;;45.97;25.98;;;179.70;2252.80;;;;;;5054911;28;20025;-73
2021/12/05 12:45:16;;;;;;;41.20;28.08;;;179.70;2252.80;;;;;;5059909;28;20029;-73
2021/12/05 12:48:08;;;;;;;44.38;28.42;;;179.70;2252.80;;;;;;5028389;28;20116;-73
2021/12/05 12:54:09;;;;;;;36.88;23.92;;;179.80;2252.80;;;;;;5042164;28;20029;-73
2021/12/05 12:57:15;;;;;;;32.20;22.23;;;179.70;2252.80;;;;;;5044597;28;20025;-73
2021/12/05 13:00:03;;;;;;;37.70;22.50;;;179.70;2252.80;;;;;;5045329;28;20021;-73
2021/12/05 13:11:23;;;;;;;35.58;23.63;;;179.90;2252.80;;;;;;5058288;28;20036;-73
2021/12/05 13:14:18;;;;;;;39.58;23.67;;;179.90;2252.80;;;;;;5057375;28;20083;-73
2021/12/05 13:16:47;;;;;;;28.73;21.02;;;179.90;2252.80;;;;;;5060885;28;20071;-73
2021/12/05 13:19:26;;;;;;;26.77;19.33;;;179.90;2252.80;;;;;;5041960;28;20024;-72
2021/12/05 13:21:56;;;;;;;41.25;21.25;;;179.90;2252.80;;;;;;5040566;28;20033;-73
2021/12/05 13:24:52;;;;;;;30.90;19.90;;;180.00;2252.80;;;;;;5063096;28;20025;-73
2021/12/05 13:27:52;;;;;;;35.90;22.77;;;180.00;2252.80;;;;;;5060292;28;20502;-73
2021/12/05 13:30:33;;;;;;;39.58;25.05;;;180.00;2252.80;;;;;;5043543;28;20496;-73
2021/12/05 13:33:26;;;;;;;37.65;25.90;;;180.00;2252.80;;;;;;5043576;28;20033;-73
2021/12/05 13:36:45;;;;;;;47.78;28.00;;;180.00;2252.80;;;;;;5062717;28;20079;-73
2021/12/05 13:39:29;;;;;;;43.60;26.27;;;180.00;2252.80;;;;;;4980327;28;20035;-73
2021/12/05 13:42:09;;;;;;;39.85;24.92;;;180.00;2252.80;;;;;;4951236;28;20382;-72
2021/12/05 13:45:26;;;;;;;68.15;40.05;;;179.90;2252.80;;;;;;4982904;28;20031;-73
2021/12/05 13:47:54;;;;;;;56.03;35.20;;;179.90;2252.80;;;;;;4975863;28;20109;-72
2021/12/05 13:50:26;;;;;;;52.97;35.33;;;179.90;2252.80;;;;;;4982018;28;20030;-72
2021/12/05 13:53:12;;;;;;;51.33;35.72;;;179.90;2252.80;;;;;;4963421;28;20552;-73
2021/12/05 13:56:04;;;;;;;63.90;40.00;;;180.00;2252.80;;;;;;4981050;28;20027;-73
2021/12/05 13:58:45;;;;;;;56.55;37.70;;;180.00;2252.80;;;;;;4974570;28;20035;-73
2021/12/05 14:01:29;;;;;;;58.78;37.97;;;179.90;2252.80;;;;;;4975755;28;20047;-73
2021/12/05 14:04:21;;;;;;;68.32;41.80;;;179.90;2252.80;;;;;;4954718;28;20027;-73
2021/12/05 14:07:07;;;;;;;54.78;36.25;;;179.90;2252.80;;;;;;4967465;28;20518;-74
2021/12/05 14:09:51;;;;;;;64.75;36.60;;;179.90;2252.80;;;;;;4967352;28;20113;-73
2021/12/05 14:12:38;;;;;;;51.13;33.42;;;179.90;2252.80;;;;;;4972145;28;20089;-73
2021/12/05 14:15:07;;;;;;;;;;;179.90;2252.80;;;;;;5035671;28;20078;-71
2021/12/05 14:17:42;;;;;;;43.38;29.38;;;179.90;2252.80;;;;;;5059500;28;19904;-74
2021/12/05 14:20:25;;;;;;;50.50;31.08;;;179.90;2252.80;;;;;;5042948;28;20035;-73
2021/12/05 14:23:04;;;;;;;46.92;30.75;;;179.90;2252.80;;;;;;5042396;28;20541;-74
2021/12/05 14:25:32;;;;;;;55.90;30.05;;;179.90;2252.80;;;;;;5055747;28;20021;-73
2021/12/05 14:28:02;;;;;;;39.08;26.88;;;179.90;2252.80;;;;;;5038570;28;20035;-73
2021/12/05 14:30:32;;;;;;;41.80;28.65;;;179.80;2252.80;;;;;;5059972;28;20028;-74
2021/12/05 14:33:02;;;;;;;46.13;30.27;;;179.80;2252.80;;;;;;5040627;28;20069;-73
2021/12/05 14:35:40;;;;;;;59.92;38.25;;;179.90;2252.80;;;;;;5046673;28;20068;-74
2021/12/05 14:38:31;;;;;;;50.38;32.80;;;179.90;2252.80;;;;;;5045347;28;20082;-73
2021/12/05 14:41:11;;;;;;;56.20;31.50;;;179.90;2252.80;;;;;;5057947;28;20037;-73
2021/12/05 14:43:40;;;;;;;53.33;32.90;;;179.80;2252.80;;;;;;5055220;28;20033;-73
2021/12/05 14:46:06;;;;;;;53.97;31.50;;;179.80;2252.80;;;;;;5057715;28;20080;-73
2021/12/05 14:48:32;;;;;;;51.72;31.15;;;179.80;2252.80;;;;;;5058645;28;20411;-73
2021/12/05 14:51:13;;;;;;;49.15;31.25;;;179.80;2252.80;;;;;;5061997;28;20020;-73
2021/12/05 14:53:47;;;;;;;46.95;29.20;;;179.80;2252.80;;;;;;5024332;28;20042;-73
2021/12/05 14:56:40;;;;;;;41.53;26.45;;;179.80;2252.80;;;;;;5042276;28;20613;-73
2021/12/05 14:59:20;;;;;;;41.40;27.95;;;179.80;2252.80;;;;;;5042010;28;20391;-73
2021/12/05 15:02:00;;;;;;;44.58;28.63;;;179.80;2252.80;;;;;;5025768;28;20049;-73
2021/12/05 15:04:42;;;;;;;45.80;28.85;;;179.80;2252.80;;;;;;5048381;28;20042;-73
2021/12/05 15:07:43;;;;;;;48.90;31.63;;;179.80;2252.80;;;;;;5058137;28;20496;-74
2021/12/05 15:10:24;;;;;;;52.47;31.02;;;179.70;2252.80;;;;;;5039558;28;20045;-73
2021/12/05 15:13:10;;;;;;;54.28;35.35;;;179.70;2252.80;;;;;;5045150;28;20074;-73
2021/12/05 15:15:39;;;;;;;49.85;30.75;;;179.70;2252.80;;;;;;5039115;28;20057;-73
2021/12/05 15:18:44;;;;;;;47.67;28.17;;;179.70;2252.80;;;;;;5046411;28;20383;-73
2021/12/05 15:21:42;;;;;;;59.70;32.30;;;179.70;2252.80;;;;;;5045670;28;20123;-72
2021/12/05 15:24:14;;;;;;;50.50;30.20;;;179.60;2252.80;;;;;;5026001;28;20067;-72
2021/12/05 15:27:15;;;;;;;47.38;29.80;;;179.60;2252.80;;;;;;5060049;28;20108;-72
2021/12/05 15:30:01;;;;;;;52.60;29.55;;;179.50;2252.80;;;;;;5019048;28;20032;-73
2021/12/05 15:32:34;;;;;;;55.63;34.10;;;179.60;2252.80;;;;;;5065950;28;20062;-70
2021/12/05 15:35:07;;;;;;;49.78;34.47;;;179.50;2252.80;;;;;;5045255;28;20036;-71
2021/12/05 15:38:03;;;;;;;47.45;29.13;;;179.50;2252.80;;;;;;5058263;28;20043;-71
2021/12/05 15:40:38;;;;;;;45.05;27.77;;;179.50;2252.80;;;;;;5044386;28;20036;-71
2021/12/05 15:43:34;;;;;;;40.35;28.25;;;179.50;2252.80;;;;;;5029997;28;20029;-70
2021/12/05 15:46:19;;;;;;;45.80;28.05;;;179.50;2252.80;;;;;;5028275;28;20116;-71
2021/12/05 15:48:47;;;;;;;45.40;27.98;;;179.50;2252.80;;;;;;5041380;28;20033;-70
2021/12/05 15:51:17;;;;;;;45.67;28.02;;;179.50;2252.80;;;;;;5058624;28;20025;-71
2021/12/05 15:53:43;;;;;;;43.92;30.13;;;179.50;2252.80;;;;;;5044084;28;20043;-71
2021/12/05 15:56:28;;;;;;;52.92;29.90;;;179.50;2252.80;;;;;;5065138;28;20024;-72
2021/12/05 15:59:18;;;;;;;44.65;29.88;;;179.50;2252.80;;;;;;5064020;28;20044;-71
2021/12/05 16:01:49;;;;;;;44.20;26.75;;;179.50;2252.80;;;;;;5069022;28;20051;-71
2021/12/05 16:07:10;;;;;;;41.22;28.23;;;179.60;2252.80;;;;;;5058837;28;20549;-70
2021/12/05 16:09:48;;;;;;;36.63;24.45;;;179.60;2252.80;;;;;;5049471;28;20021;-70
2021/12/05 16:12:39;;;;;;;44.92;29.17;;;179.60;2252.80;;;;;;5058026;28;20029;-70
2021/12/05 16:18:08;;;;;;;50.28;29.48;;;179.60;2252.80;;;;;;5064897;28;20039;-70
2021/12/05 16:20:51;;;;;;;42.33;27.65;;;179.60;2252.80;;;;;;5062430;28;20032;-70
2021/12/05 16:26:31;;;;;;;37.88;27.23;;;179.60;2252.80;;;;;;5067802;28;20502;-70
2021/12/05 16:29:40;;;;;;;40.95;23.27;;;179.60;2252.80;;;;;;5066799;28;20031;-70
2021/12/05 16:32:13;;;;;;;39.45;26.10;;;179.60;2252.80;;;;;;5049535;28;20136;-71
2021/12/05 16:34:46;;;;;;;38.33;25.10;;;179.60;2252.80;;;;;;5060626;28;20024;-71
2021/12/05 16:37:17;;;;;;;45.28;27.75;;;179.60;2252.80;;;;;;5042109;28;20374;-70
2021/12/05 16:39:59;;;;;;;43.78;27.50;;;179.60;2252.80;;;;;;5065055;28;20024;-70
2021/12/05 16:42:47;;;;;;;50.35;27.52;;;179.70;2252.80;;;;;;5048325;28;20503;-69
2021/12/05 16:45:41;;;;;;;51.28;28.90;;;179.70;2252.80;;;;;;5050134;28;20391;-71
2021/12/05 16:48:34;;;;;;;45.30;26.60;;;179.70;2252.80;;;;;;5049593;28;20032;-70
2021/12/05 16:51:43;;;;;;;37.42;22.52;;;179.70;2252.80;;;;;;5045177;28;20476;-70
2021/12/05 16:57:53;;;;;;;38.05;23.05;;;179.80;2252.80;;;;;;5043645;28;20020;-70
2021/12/05 17:00:48;;;;;;;42.25;23.67;;;179.80;2252.80;;;;;;5047216;28;20049;-71
2021/12/05 17:03:42;;;;;;;31.63;20.45;;;179.80;2252.80;;;;;;5044907;28;20036;-70
2021/12/05 17:06:15;;;;;;;38.97;22.08;;;179.80;2252.80;;;;;;5050391;28;20049;-70
2021/12/05 17:09:20;;;;;;;32.60;20.30;;;179.80;2252.80;;;;;;5047625;28;20017;-70
2021/12/05 17:11:55;;;;;;;32.28;18.67;;;179.90;2252.80;;;;;;5038430;28;20040;-71
2021/12/05 17:14:23;;;;;;;33.15;19.05;;;179.80;2252.80;;;;;;5044397;28;20025;-70
2021/12/05 17:17:33;;;;;;;37.05;20.48;;;179.90;2252.80;;;;;;5041506;28;20033;-70
2021/12/05 17:20:54;;;;;;;35.95;19.45;;;179.90;2252.80;;;;;;5049185;28;20025;-72
2021/12/05 17:23:44;;;;;;;42.90;22.50;;;179.90;2252.80;;;;;;5049835;28;20036;-72
2021/12/05 17:29:44;;;;;;;33.13;19.85;;;180.00;2252.80;;;;;;5052642;28;20733;-71
2021/12/05 17:32:37;;;;;;;48.95;24.92;;;180.00;2252.80;;;;;;5044717;28;20025;-72
2021/12/05 17:35:30;;;;;;;34.08;20.65;;;180.00;2252.80;;;;;;5044751;28;20033;-71
2021/12/05 17:38:02;;;;;;;33.30;20.60;;;180.10;2252.80;;;;;;5046659;28;20473;-72
2021/12/05 17:40:28;;;;;;;30.73;18.58;;;180.10;2252.80;;;;;;5039952;28;20116;-72
2021/12/05 17:42:57;;;;;;;33.47;20.50;;;180.10;2252.80;;;;;;5049742;28;20540;-72
2021/12/05 17:45:41;;;;;;;29.98;19.00;;;180.10;2252.80;;;;;;5045544;28;20021;-73
2021/12/05 17:48:07;;;;;;;26.92;17.05;;;180.10;2252.80;;;;;;5031969;28;20534;-72
2021/12/05 17:50:41;;;;;;;26.08;16.05;;;180.10;2252.80;;;;;;5026366;28;20477;-71
2021/12/05 17:53:44;;;;;;;23.35;15.32;;;180.10;2252.80;;;;;;5047539;28;20025;-73
2021/12/05 17:56:34;;;;;;;25.33;16.77;;;180.10;2252.80;;;;;;5046688;28;20017;-73
2021/12/05 18:04:50;;;;;;;24.87;16.20;;;180.10;2252.80;;;;;;5019689;28;20033;-72
2021/12/05 18:07:22;;;;;;;29.13;18.90;;;180.10;2252.80;;;;;;5021111;28;20263;-71
2021/12/05 18:09:56;;;;;;;28.15;18.80;;;180.10;2252.80;;;;;;5028719;28;20034;-72
2021/12/05 18:12:50;;;;;;;25.38;16.63;;;204.80;2252.80;;;;;;5025564;28;20105;-72
2021/12/05 18:15:35;;;;;;;29.17;17.83;;;204.80;2252.80;;;;;;5022447;28;20087;-73
2021/12/05 18:18:21;;;;;;;26.65;17.23;;;204.80;2252.80;;;;;;5024646;28;20045;-72
2021/12/05 18:20:50;;;;;;;31.00;18.92;;;204.80;2252.80;;;;;;5024049;28;20111;-71
2021/12/05 18:26:32;;;;;;;31.30;18.58;;;204.80;2252.80;;;;;;5024071;28;20024;-72
2021/12/05 18:29:05;;;;;;;29.20;17.25;;;204.90;2252.80;;;;;;5027858;28;20037;-71
2021/12/05 18:31:35;;;;;;;27.00;15.68;;;204.90;2252.80;;;;;;5023013;28;20029;-71
2021/12/05 18:34:29;;;;;;;22.83;14.32;;;204.80;2252.80;;;;;;5032694;28;20107;-71
2021/12/05 18:37:12;;;;;;;27.50;15.80;;;204.90;2252.80;;;;;;5049628;28;20025;-72
2021/12/05 18:39:53;;;;;;;97.18;48.15;;;204.80;2252.80;;;;;;5040138;28;20060;-72
2021/12/05 18:42:25;;;;;;;30.00;18.17;;;204.90;2252.80;;;;;;5043828;28;20491;-72
2021/12/05 18:45:13;;;;;;;57.72;31.65;;;204.90;2252.80;;;;;;5028908;28;20033;-73
2021/12/05 18:47:57;;;;;;;71.38;40.85;;;204.90;2252.80;;;;;;5048479;28;20100;-72
2021/12/05 18:50:45;;;;;;;96.70;50.10;;;204.90;2252.80;;;;;;5048461;28;20083;-71
2021/12/05 18:56:25;;;;;;;42.53;26.23;;;204.90;2252.80;;;;;;5048915;28;20033;-72
2021/12/05 18:59:10;;;;;;;46.00;25.13;;;204.90;2252.80;;;;;;5043696;28;20028;-72
2021/12/05 19:07:39;;;;;;;40.75;25.80;;;204.90;2252.80;;;;;;5048310;28;20438;-72
2021/12/05 19:12:40;;;;;;;44.20;25.05;;;204.90;2252.80;;;;;;5039100;28;20029;-72
2021/12/05 19:18:12;;;;;;;36.78;22.23;;;204.90;2252.80;;;;;;5052206;28;20032;-72
2021/12/05 19:20:47;;;;;;;32.38;21.50;;;204.90;2252.80;;;;;;5048702;28;20037;-72
2021/12/05 19:23:26;;;;;;;34.03;23.10;;;204.90;2252.80;;;;;;5040223;28;20060;-71
2021/12/05 19:26:07;;;;;;;34.13;22.65;;;204.90;2252.80;;;;;;5040161;28;20038;-72
2021/12/05 19:28:39;;;;;;;40.20;25.52;;;204.90;2252.80;;;;;;5018334;28;20025;-72
2021/12/05 19:31:08;;;;;;;43.72;28.20;;;204.80;2252.80;;;;;;5049187;28;20029;-71
2021/12/05 19:34:08;;;;;;;55.67;33.58;;;180.10;2252.80;;;;;;5033638;28;20025;-72